Time;durP1;ratioP1;P1;durP2;ratioP2;P2;SDS_P1;SDS_P2;PMS_P1;PMS_P2;Temp;Humidity;BMP_temperature;BMP_pressure;BME280_temperature;BME280_humidity;BME280_pressure;Samples;Min_cycle;Max_cycle;Signal;HPM_P1;HPM_P2
2023/10/10 00:01:07;;;;;;;26.37;23.50;;;19.50;99.90;;;;;;4973546;28;20412;-62
2023/10/10 00:03:39;;;;;;;26.37;23.67;;;19.50;99.90;;;;;;4971972;28;20454;-62
2023/10/10 00:06:09;;;;;;;28.13;23.43;;;19.50;99.90;;;;;;4972394;28;20442;-62
2023/10/10 00:08:41;;;;;;;28.37;24.43;;;19.40;99.90;;;;;;4972135;28;20774;-62
2023/10/10 00:11:14;;;;;;;25.67;22.97;;;19.40;99.90;;;;;;4973225;28;20562;-62
2023/10/10 00:13:43;;;;;;;27.17;24.03;;;19.40;99.90;;;;;;4971826;28;20531;-62
2023/10/10 00:16:11;;;;;;;30.53;25.37;;;19.40;99.90;;;;;;4972688;28;20459;-62
2023/10/10 00:18:43;;;;;;;27.60;24.70;;;19.40;99.90;;;;;;4954426;28;20462;-60
2023/10/10 00:21:11;;;;;;;27.50;23.43;;;19.40;99.90;;;;;;4954364;29;20405;-62
2023/10/10 00:23:47;;;;;;;28.97;25.87;;;19.40;99.90;;;;;;4949932;28;20932;-62
2023/10/10 00:26:26;;;;;;;27.97;24.80;;;19.40;99.90;;;;;;4971979;28;20423;-61
2023/10/10 00:28:55;;;;;;;30.60;24.50;;;19.40;99.90;;;;;;4955793;28;20435;-62
2023/10/10 00:31:26;;;;;;;28.23;25.37;;;19.40;99.90;;;;;;4972685;28;20525;-60
2023/10/10 00:33:54;;;;;;;29.60;24.80;;;19.30;99.90;;;;;;4971773;28;20480;-62
2023/10/10 00:36:42;;;;;;;28.40;24.80;;;19.30;99.90;;;;;;4972504;28;20415;-61
2023/10/10 00:41:54;;;;;;;27.57;24.20;;;19.30;99.90;;;;;;4965210;28;20431;-62
2023/10/10 00:44:21;;;;;;;30.77;25.57;;;19.20;99.90;;;;;;4955346;28;20518;-62
2023/10/10 00:46:51;;;;;;;28.73;25.37;;;19.20;99.90;;;;;;4972948;28;20432;-62
2023/10/10 00:49:25;;;;;;;28.53;25.53;;;19.20;99.90;;;;;;4972433;28;20475;-62
2023/10/10 00:51:56;;;;;;;31.20;24.90;;;19.20;99.90;;;;;;4954911;28;20459;-63
2023/10/10 00:56:54;;;;;;;30.50;25.20;;;19.20;99.90;;;;;;4972532;28;20943;-62
2023/10/10 00:59:28;;;;;;;32.43;26.73;;;19.20;99.90;;;;;;4972333;28;20490;-62
2023/10/10 01:01:54;;;;;;;29.27;25.67;;;19.20;99.90;;;;;;4955167;28;20813;-62
2023/10/10 01:04:35;;;;;;;27.97;24.90;;;19.20;99.90;;;;;;4972930;28;20412;-62
2023/10/10 01:07:03;;;;;;;31.03;24.60;;;19.20;99.90;;;;;;4972210;28;20438;-62
2023/10/10 01:09:34;;;;;;;28.53;24.07;;;19.20;99.90;;;;;;4971213;28;20479;-61
2023/10/10 01:12:04;;;;;;;30.43;25.60;;;19.20;99.90;;;;;;4972003;28;20459;-61
2023/10/10 01:14:33;;;;;;;27.20;23.23;;;19.20;99.90;;;;;;4971995;28;20949;-62
2023/10/10 01:16:59;;;;;;;33.00;25.10;;;19.10;99.90;;;;;;4975201;28;20451;-62
2023/10/10 01:19:31;;;;;;;28.40;24.43;;;19.10;99.90;;;;;;4975265;28;20427;-60
2023/10/10 01:22:03;;;;;;;27.57;24.57;;;19.10;99.90;;;;;;4941128;29;20170;-62
2023/10/10 01:24:31;;;;;;;27.17;24.47;;;19.10;99.90;;;;;;4965203;28;20428;-62
2023/10/10 01:27:21;;;;;;;30.23;26.77;;;19.00;99.90;;;;;;4974917;28;20482;-61
2023/10/10 01:30:16;;;;;;;28.50;23.97;;;19.00;99.90;;;;;;4955100;29;20519;-62
2023/10/10 01:32:39;;;;;;;29.43;24.13;;;19.00;99.90;;;;;;4955455;28;20564;-61
2023/10/10 01:35:16;;;;;;;29.50;24.37;;;19.00;99.90;;;;;;4973820;28;20438;-62
2023/10/10 01:37:42;;;;;;;25.43;22.73;;;19.00;99.90;;;;;;4973893;28;20438;-62
2023/10/10 01:40:16;;;;;;;26.43;23.40;;;19.00;99.90;;;;;;4975235;28;20439;-62
2023/10/10 01:42:59;;;;;;;31.60;24.63;;;19.00;99.90;;;;;;4974610;28;20462;-62
2023/10/10 01:45:27;;;;;;;33.30;26.77;;;19.00;99.90;;;;;;4975440;28;20455;-60
2023/10/10 01:48:11;;;;;;;28.50;25.43;;;19.00;99.90;;;;;;4974749;28;20539;-62
2023/10/10 01:50:37;;;;;;;32.00;27.73;;;19.00;99.90;;;;;;4959118;28;20439;-62
2023/10/10 01:53:06;;;;;;;30.80;25.90;;;19.00;99.90;;;;;;4974519;28;20423;-62
2023/10/10 01:55:31;;;;;;;35.13;29.00;;;19.00;99.90;;;;;;4957845;28;20408;-62
2023/10/10 01:58:02;;;;;;;33.57;26.73;;;19.00;99.90;;;;;;4974550;28;20770;-62
2023/10/10 02:00:34;;;;;;;28.63;24.80;;;19.00;99.90;;;;;;4957453;28;20594;-59
2023/10/10 02:03:01;;;;;;;33.20;25.47;;;19.00;99.90;;;;;;4975165;28;20423;-62
2023/10/10 02:05:45;;;;;;;30.17;26.87;;;19.00;99.90;;;;;;4974340;28;20875;-59
2023/10/10 02:08:16;;;;;;;29.07;25.90;;;19.10;99.90;;;;;;4957105;28;20511;-61
2023/10/10 02:10:46;;;;;;;30.73;27.47;;;19.10;99.90;;;;;;4941652;28;20597;-62
2023/10/10 02:13:14;;;;;;;32.70;26.40;;;19.10;99.90;;;;;;4975038;28;20443;-62
2023/10/10 02:15:39;;;;;;;31.97;26.77;;;19.10;99.90;;;;;;4973847;28;20436;-62
2023/10/10 02:18:25;;;;;;;30.50;26.03;;;19.10;99.90;;;;;;4975342;28;20407;-62
2023/10/10 02:20:51;;;;;;;30.30;25.77;;;19.10;99.90;;;;;;4955734;28;20169;-62
2023/10/10 02:23:32;;;;;;;31.90;26.83;;;19.10;99.90;;;;;;4956742;28;20427;-62
2023/10/10 02:26:03;;;;;;;29.50;25.17;;;19.10;99.90;;;;;;4941123;28;20435;-62
2023/10/10 02:28:48;;;;;;;28.90;23.53;;;19.10;99.90;;;;;;4973090;28;20468;-60
2023/10/10 02:31:18;;;;;;;26.17;23.43;;;19.10;99.90;;;;;;4975039;28;20458;-62
2023/10/10 02:33:56;;;;;;;28.50;25.30;;;19.20;99.90;;;;;;4940351;28;20431;-62
2023/10/10 02:36:31;;;;;;;29.07;25.67;;;19.20;99.90;;;;;;4974093;28;20435;-62
2023/10/10 02:39:19;;;;;;;33.03;25.50;;;19.10;99.90;;;;;;4974590;28;20470;-62
2023/10/10 02:41:59;;;;;;;29.40;24.67;;;19.20;99.90;;;;;;4973766;28;20455;-62
2023/10/10 02:46:59;;;;;;;30.07;25.60;;;19.10;99.90;;;;;;4973882;28;20435;-62
2023/10/10 02:51:57;;;;;;;31.40;26.23;;;19.20;99.90;;;;;;4972725;28;20687;-62
2023/10/10 02:54:28;;;;;;;30.93;26.87;;;19.10;99.90;;;;;;4973908;28;20502;-62
2023/10/10 02:56:58;;;;;;;30.90;25.43;;;19.10;99.90;;;;;;4973683;28;20458;-62
2023/10/10 02:59:31;;;;;;;31.93;26.60;;;19.10;99.90;;;;;;4973809;28;20432;-62
2023/10/10 03:02:18;;;;;;;32.90;25.40;;;19.10;99.90;;;;;;4973401;28;20432;-62
2023/10/10 03:07:28;;;;;;;33.40;23.97;;;19.20;99.90;;;;;;4948353;28;20448;-62
2023/10/10 03:12:43;;;;;;;31.50;25.90;;;19.10;99.90;;;;;;4972913;28;20468;-62
2023/10/10 03:18:04;;;;;;;30.67;26.67;;;19.10;99.90;;;;;;4973544;28;20880;-62
2023/10/10 03:26:04;;;;;;;34.50;24.07;;;19.20;99.90;;;;;;4970630;28;20494;-60
2023/10/10 03:28:34;;;;;;;35.80;24.13;;;19.20;99.90;;;;;;4972337;28;20464;-62
2023/10/10 03:33:37;;;;;;;38.47;27.20;;;19.10;99.90;;;;;;4972114;28;20432;-60
2023/10/10 05:25:29;;;;;;;39.50;26.70;;;18.40;99.90;;;;;;4975010;28;20431;-63
2023/10/10 05:27:58;;;;;;;35.57;26.30;;;18.40;99.90;;;;;;4974340;28;20831;-61
2023/10/10 05:30:25;;;;;;;35.80;26.17;;;18.40;99.90;;;;;;4958398;28;20447;-62
2023/10/10 05:33:02;;;;;;;39.37;25.17;;;18.30;99.90;;;;;;4974161;28;20470;-62
2023/10/10 05:35:29;;;;;;;38.03;26.30;;;18.40;99.90;;;;;;4960866;28;20424;-62
2023/10/10 05:37:56;;;;;;;36.07;25.33;;;18.30;99.90;;;;;;4974806;28;20935;-62
2023/10/10 05:40:24;;;;;;;34.97;25.40;;;18.30;99.90;;;;;;4974797;28;20428;-62
2023/10/10 05:42:51;;;;;;;34.97;27.17;;;18.30;99.90;;;;;;4974513;28;20438;-62
2023/10/10 05:45:21;;;;;;;34.57;24.10;;;18.20;99.90;;;;;;4975119;28;20436;-68
2023/10/10 05:47:47;;;;;;;34.90;25.97;;;18.30;99.90;;;;;;4975581;28;20416;-65
2023/10/10 05:50:13;;;;;;;35.07;25.33;;;18.40;99.90;;;;;;4975499;28;20430;-65
2023/10/10 05:52:40;;;;;;;30.67;23.90;;;18.60;99.90;;;;;;4957931;28;20486;-62
2023/10/10 05:55:10;;;;;;;31.80;23.67;;;18.80;99.90;;;;;;4975274;28;20400;-65
2023/10/10 05:57:42;;;;;;;35.80;25.90;;;18.90;99.90;;;;;;4957821;28;20424;-64
2023/10/10 06:00:10;;;;;;;38.60;25.90;;;19.10;99.90;;;;;;4956778;28;21015;-64
2023/10/10 06:02:45;;;;;;;35.00;25.63;;;19.20;99.90;;;;;;4972880;28;20428;-65
2023/10/10 06:05:15;;;;;;;32.40;22.67;;;19.30;99.90;;;;;;4975014;28;20428;-68
2023/10/10 06:07:44;;;;;;;35.80;26.00;;;19.40;99.90;;;;;;4974650;28;20770;-66
2023/10/10 06:10:15;;;;;;;37.47;26.13;;;19.40;99.90;;;;;;4974392;28;20432;-67
2023/10/10 06:12:46;;;;;;;36.73;24.87;;;19.40;99.90;;;;;;4974774;28;20452;-65
2023/10/10 06:15:12;;;;;;;33.10;24.67;;;19.50;99.90;;;;;;4956536;29;20405;-67
2023/10/10 06:17:39;;;;;;;35.33;25.50;;;19.50;99.90;;;;;;4970358;28;20427;-67
2023/10/10 06:20:15;;;;;;;41.57;27.37;;;19.60;99.90;;;;;;4975080;28;20416;-67
2023/10/10 06:22:44;;;;;;;38.60;26.10;;;19.60;99.90;;;;;;4974741;28;20440;-68
2023/10/10 06:25:11;;;;;;;35.30;24.67;;;19.70;99.90;;;;;;4974814;28;20436;-67
2023/10/10 06:27:40;;;;;;;38.07;26.27;;;19.60;99.90;;;;;;4975473;28;20456;-67
2023/10/10 06:30:26;;;;;;;36.97;25.60;;;19.70;99.90;;;;;;4974562;28;20438;-67
2023/10/10 06:32:58;;;;;;;38.43;23.33;;;19.70;99.90;;;;;;4956641;28;20977;-70
2023/10/10 06:37:54;;;;;;;34.17;25.07;;;19.70;99.90;;;;;;4974797;28;20436;-67
2023/10/10 06:40:29;;;;;;;33.87;25.07;;;19.70;99.90;;;;;;4973882;28;20522;-68
2023/10/10 06:42:56;;;;;;;40.83;26.63;;;19.70;99.90;;;;;;4973369;28;20954;-67
2023/10/10 06:45:26;;;;;;;34.07;26.10;;;19.80;99.90;;;;;;4975028;28;20428;-67
2023/10/10 06:47:54;;;;;;;36.67;27.17;;;19.80;99.90;;;;;;4956252;28;20795;-68
2023/10/10 06:50:22;;;;;;;36.53;25.23;;;19.80;99.90;;;;;;4973688;28;20439;-68
2023/10/10 06:52:52;;;;;;;36.10;27.00;;;19.80;99.90;;;;;;4973785;28;20466;-68
2023/10/10 06:55:22;;;;;;;42.93;29.13;;;19.80;99.90;;;;;;4956577;28;20923;-65
2023/10/10 06:57:57;;;;;;;46.43;28.33;;;19.70;99.90;;;;;;4972931;28;20436;-72
2023/10/10 07:00:44;;;;;;;40.63;27.57;;;19.70;99.90;;;;;;4973995;28;20477;-72
2023/10/10 07:03:15;;;;;;;37.40;29.00;;;19.60;99.90;;;;;;4955466;29;20424;-69
2023/10/10 07:05:44;;;;;;;42.10;29.70;;;19.40;99.90;;;;;;4965028;28;20423;-69
2023/10/10 07:08:13;;;;;;;40.73;29.87;;;19.30;99.90;;;;;;4956459;28;20782;-71
2023/10/10 07:10:42;;;;;;;42.87;30.03;;;19.20;99.90;;;;;;4973944;28;20439;-71
2023/10/10 07:13:19;;;;;;;37.87;28.30;;;19.10;99.90;;;;;;4972919;28;20467;-71
2023/10/10 07:15:52;;;;;;;42.47;31.03;;;19.00;99.90;;;;;;4972650;28;20427;-61
2023/10/10 07:18:23;;;;;;;42.63;31.70;;;19.00;99.90;;;;;;4963914;28;20424;-72
2023/10/10 07:21:04;;;;;;;43.70;30.90;;;18.90;99.90;;;;;;4961649;28;20440;-72
2023/10/10 07:23:41;;;;;;;40.27;29.80;;;18.80;99.90;;;;;;4966891;28;20427;-71
2023/10/10 07:26:25;;;;;;;42.53;30.77;;;18.80;99.90;;;;;;4955118;28;20431;-72
2023/10/10 07:28:56;;;;;;;45.83;32.87;;;18.80;99.90;;;;;;4972575;28;20451;-71
2023/10/10 07:31:24;;;;;;;43.93;32.00;;;18.80;99.90;;;;;;4957048;28;20467;-72
2023/10/10 07:34:04;;;;;;;44.97;32.67;;;18.70;99.90;;;;;;4973011;28;20423;-71
2023/10/10 07:36:31;;;;;;;49.07;34.27;;;18.70;99.90;;;;;;4968423;28;20432;-72
2023/10/10 07:41:45;;;;;;;41.70;31.13;;;18.80;99.90;;;;;;4973461;28;20995;-72
2023/10/10 07:44:12;;;;;;;44.03;32.00;;;18.80;99.90;;;;;;4955697;28;20440;-72
2023/10/10 07:46:38;;;;;;;46.90;35.20;;;18.80;99.90;;;;;;4973090;28;20428;-71
2023/10/10 07:49:07;;;;;;;50.03;37.10;;;18.80;99.90;;;;;;4973149;28;20418;-72
2023/10/10 07:51:34;;;;;;;48.93;35.03;;;18.90;99.90;;;;;;4972345;28;20208;-70
2023/10/10 07:54:12;;;;;;;53.40;38.37;;;18.90;99.90;;;;;;4964419;28;20437;-73
2023/10/10 07:56:45;;;;;;;50.60;35.80;;;19.00;99.90;;;;;;4971438;28;20455;-73
2023/10/10 07:59:17;;;;;;;47.80;36.30;;;19.00;99.90;;;;;;4956136;28;20423;-73
2023/10/10 08:01:44;;;;;;;46.67;34.30;;;19.10;99.90;;;;;;4972896;28;20446;-73
2023/10/10 08:04:16;;;;;;;45.57;35.50;;;19.20;99.90;;;;;;4972582;28;20424;-73
2023/10/10 08:06:44;;;;;;;50.47;36.40;;;19.20;99.90;;;;;;4972935;28;20514;-73
2023/10/10 08:11:45;;;;;;;40.10;32.00;;;19.40;99.90;;;;;;4953587;28;20554;-74
2023/10/10 08:14:11;;;;;;;38.00;30.13;;;19.50;99.90;;;;;;4954958;28;20501;-72
2023/10/10 08:16:39;;;;;;;37.43;30.30;;;19.50;99.90;;;;;;4972966;28;20922;-73
2023/10/10 08:19:08;;;;;;;38.43;28.83;;;19.50;99.90;;;;;;4954950;28;20786;-73
2023/10/10 08:21:38;;;;;;;39.50;29.70;;;19.60;99.90;;;;;;4953141;28;20974;-61
2023/10/10 08:24:06;;;;;;;38.70;28.77;;;19.60;99.90;;;;;;4973151;28;20416;-62
2023/10/10 08:26:38;;;;;;;36.73;28.83;;;19.50;99.90;;;;;;4957857;28;20436;-65
2023/10/10 08:29:09;;;;;;;35.20;27.53;;;19.70;99.90;;;;;;4959125;28;20439;-62
2023/10/10 08:31:38;;;;;;;29.97;24.87;;;19.80;99.90;;;;;;4971586;28;20467;-62
2023/10/10 08:34:06;;;;;;;27.93;24.30;;;19.80;99.90;;;;;;4964703;28;20471;-62
2023/10/10 08:36:32;;;;;;;29.47;23.80;;;19.90;99.90;;;;;;4966619;28;20409;-62
2023/10/10 08:39:25;;;;;;;31.27;23.43;;;20.00;99.90;;;;;;4966264;28;20414;-64
2023/10/10 08:41:52;;;;;;;23.83;20.20;;;20.10;99.90;;;;;;4971309;28;20208;-63
2023/10/10 08:44:19;;;;;;;23.67;19.70;;;20.10;99.90;;;;;;4972010;28;20407;-62
2023/10/10 08:46:46;;;;;;;26.00;19.47;;;20.20;99.90;;;;;;4971392;28;20434;-62
2023/10/10 08:49:14;;;;;;;24.40;18.90;;;20.30;99.90;;;;;;4965740;28;20416;-62
2023/10/10 08:51:42;;;;;;;20.77;18.00;;;20.40;99.90;;;;;;4966239;28;20455;-62
2023/10/10 08:54:09;;;;;;;20.23;17.33;;;20.30;99.90;;;;;;4966254;28;20980;-62
2023/10/10 08:56:43;;;;;;;22.90;18.53;;;20.30;99.90;;;;;;4966704;28;20423;-62
2023/10/10 08:59:11;;;;;;;20.80;18.60;;;20.40;99.90;;;;;;4965055;28;20743;-62
2023/10/10 09:01:38;;;;;;;19.37;17.17;;;20.60;99.90;;;;;;4971081;28;20455;-62
2023/10/10 09:04:05;;;;;;;25.27;18.10;;;20.60;99.90;;;;;;4970197;28;20410;-62
2023/10/10 09:07:39;;;;;;;20.53;17.17;;;20.60;99.90;;;;;;4966936;28;20480;-62
2023/10/10 09:09:34;;;;;;;18.43;16.43;;;20.70;99.90;;;;;;4955481;28;20420;-63
2023/10/10 09:12:02;;;;;;;16.57;14.90;;;20.80;99.90;;;;;;4965159;28;20463;-63
2023/10/10 09:14:49;;;;;;;15.70;14.07;;;21.00;99.90;;;;;;4967309;28;20435;-62
2023/10/10 09:17:35;;;;;;;17.53;13.80;;;21.20;99.90;;;;;;4952177;28;20419;-62
2023/10/10 09:22:51;;;;;;;18.93;15.60;;;21.60;99.90;;;;;;4969801;28;20427;-62
2023/10/10 09:25:26;;;;;;;14.40;12.90;;;21.90;99.90;;;;;;4966007;28;20405;-62
2023/10/10 09:28:04;;;;;;;18.40;16.23;;;22.10;99.90;;;;;;4955302;28;20446;-72
2023/10/10 09:30:40;;;;;;;18.70;13.33;;;22.30;99.90;;;;;;4955410;28;20431;-68
2023/10/10 09:33:27;;;;;;;14.60;11.67;;;22.30;99.90;;;;;;4967415;28;20503;-68
2023/10/10 09:36:08;;;;;;;19.63;17.50;;;22.50;99.90;;;;;;4966678;28;20404;-70
2023/10/10 09:38:45;;;;;;;14.50;11.70;;;22.60;99.90;;;;;;4969997;28;20955;-67
2023/10/10 09:41:36;;;;;;;19.40;15.40;;;22.80;99.90;;;;;;4967874;28;20415;-67
2023/10/10 09:58:15;;;;;;;13.53;12.17;;;23.40;99.90;;;;;;4970148;28;20772;-67
2023/10/10 10:03:31;;;;;;;11.93;10.83;;;23.50;99.90;;;;;;4965670;28;20495;-68
2023/10/10 10:06:00;;;;;;;163.23;137.00;;;23.50;99.90;;;;;;4968611;28;20460;-68
2023/10/10 10:09:14;;;;;;;22.03;19.77;;;23.60;99.90;;;;;;4955110;28;20475;-70
2023/10/10 10:12:19;;;;;;;12.30;10.47;;;23.70;99.90;;;;;;4956740;29;20457;-68
2023/10/10 10:15:06;;;;;;;12.07;9.93;;;23.80;99.90;;;;;;4956842;29;20413;-67
2023/10/10 10:17:49;;;;;;;8.20;7.40;;;23.80;99.90;;;;;;4939318;29;20800;-68
2023/10/10 10:23:42;;;;;;;8.73;7.37;;;23.80;97.60;;;;;;4915784;29;20446;-69
2023/10/10 10:26:10;;;;;;;13.20;12.00;;;23.60;96.40;;;;;;4933778;29;20429;-69
2023/10/10 10:28:36;;;;;;;11.70;10.50;;;23.60;97.40;;;;;;4940109;28;20471;-68
2023/10/10 10:31:35;;;;;;;10.67;8.83;;;23.50;98.20;;;;;;4957438;28;20422;-68
2023/10/10 10:34:10;;;;;;;9.83;8.77;;;23.40;97.60;;;;;;4973868;28;20527;-68
2023/10/10 10:36:43;;;;;;;10.03;9.13;;;23.40;96.60;;;;;;4974301;28;20411;-68
2023/10/10 10:39:19;;;;;;;9.47;8.47;;;23.50;97.60;;;;;;4974706;28;20396;-67
2023/10/10 10:41:53;;;;;;;8.17;7.40;;;23.50;95.90;;;;;;4958189;28;20421;-68
2023/10/10 10:44:44;;;;;;;9.57;8.50;;;23.50;96.70;;;;;;4955276;28;20489;-69
2023/10/10 10:47:35;;;;;;;8.30;7.60;;;23.50;96.80;;;;;;4941430;28;20415;-68
2023/10/10 10:50:16;;;;;;;7.40;6.67;;;23.60;97.20;;;;;;4965151;28;20516;-67
2023/10/10 10:52:56;;;;;;;10.30;9.43;;;23.60;98.50;;;;;;4970858;28;20498;-68
2023/10/10 10:55:27;;;;;;;11.47;9.93;;;23.70;98.20;;;;;;4974508;28;20458;-67
2023/10/10 11:01:08;;;;;;;9.53;6.83;;;23.80;96.50;;;;;;4931707;28;20427;-67
2023/10/10 11:03:38;;;;;;;7.83;6.70;;;23.90;95.90;;;;;;4957344;28;20923;-67
2023/10/10 11:06:08;;;;;;;8.40;7.17;;;24.00;94.70;;;;;;4974086;28;20822;-69
2023/10/10 11:08:55;;;;;;;8.00;6.83;;;24.10;95.20;;;;;;4972846;28;20446;-67
2023/10/10 11:11:36;;;;;;;125.00;101.97;;;24.20;94.90;;;;;;4974099;28;20559;-69
2023/10/10 11:16:56;;;;;;;18.80;15.50;;;24.30;94.30;;;;;;4975031;28;20436;-67
2023/10/10 11:22:05;;;;;;;21.17;18.60;;;24.30;93.80;;;;;;4975025;28;20403;-68
2023/10/10 11:24:34;;;;;;;8.10;6.97;;;24.40;94.10;;;;;;4974412;28;20427;-68
2023/10/10 11:29:45;;;;;;;11.93;10.70;;;24.20;93.90;;;;;;4956906;28;20531;-67
2023/10/10 11:32:24;;;;;;;8.33;7.53;;;24.40;94.00;;;;;;4973897;28;20539;-68
2023/10/10 11:34:55;;;;;;;10.40;9.00;;;24.50;92.30;;;;;;4973580;28;20439;-68
2023/10/10 11:37:31;;;;;;;8.30;7.60;;;24.70;92.90;;;;;;4956436;28;20801;-68
2023/10/10 11:42:59;;;;;;;7.23;6.63;;;24.80;92.90;;;;;;4973612;28;20772;-68
2023/10/10 11:45:29;;;;;;;7.67;6.93;;;24.90;92.60;;;;;;4973624;28;20416;-68
2023/10/10 11:48:10;;;;;;;7.47;6.77;;;24.80;93.10;;;;;;4970362;28;20431;-68
2023/10/10 11:50:48;;;;;;;6.53;6.03;;;24.90;92.90;;;;;;4970463;28;20756;-69
2023/10/10 11:53:23;;;;;;;7.40;6.90;;;24.80;92.40;;;;;;4969864;28;20860;-67
2023/10/10 11:55:52;;;;;;;7.83;7.13;;;24.80;91.20;;;;;;4970539;28;20407;-69
2023/10/10 11:58:18;;;;;;;6.20;5.70;;;24.60;91.90;;;;;;4952816;28;20435;-69
2023/10/10 12:00:45;;;;;;;8.60;6.97;;;24.50;91.60;;;;;;4952031;28;20494;-69
2023/10/10 12:06:19;;;;;;;8.50;7.70;;;24.40;90.80;;;;;;4909391;29;20485;-67
2023/10/10 12:08:50;;;;;;;8.17;7.40;;;24.30;90.90;;;;;;4917266;28;20463;-67
2023/10/10 12:11:21;;;;;;;7.27;6.63;;;24.20;92.10;;;;;;4969948;28;20462;-68
2023/10/10 12:13:52;;;;;;;6.60;6.00;;;24.20;92.10;;;;;;4969131;28;20435;-70
2023/10/10 12:16:23;;;;;;;6.87;6.27;;;24.10;91.30;;;;;;4969684;28;20510;-70
2023/10/10 12:18:52;;;;;;;7.20;6.60;;;23.90;92.20;;;;;;4954076;28;20436;-69
2023/10/10 12:21:22;;;;;;;6.40;5.90;;;23.90;92.70;;;;;;4952239;28;20432;-69
2023/10/10 12:23:50;;;;;;;7.37;6.67;;;23.90;91.60;;;;;;4970408;28;20427;-69
2023/10/10 12:26:18;;;;;;;8.40;5.83;;;23.90;92.30;;;;;;4951466;28;20512;-68
2023/10/10 12:28:47;;;;;;;7.43;6.23;;;23.90;91.70;;;;;;4949427;28;20500;-68
2023/10/10 12:31:16;;;;;;;6.60;6.00;;;23.90;91.40;;;;;;4950230;28;20432;-70
2023/10/10 12:33:48;;;;;;;7.37;6.77;;;23.90;92.10;;;;;;4949831;28;20999;-70
2023/10/10 12:36:15;;;;;;;6.50;5.93;;;23.80;92.50;;;;;;4933016;29;20483;-68
2023/10/10 12:38:41;;;;;;;7.93;6.87;;;23.80;92.60;;;;;;4950252;28;20885;-68
2023/10/10 12:41:13;;;;;;;8.10;5.93;;;23.70;91.60;;;;;;4949509;28;20413;-68
2023/10/10 12:43:39;;;;;;;10.07;8.50;;;23.70;90.20;;;;;;4950782;28;20196;-68
2023/10/10 12:46:07;;;;;;;8.63;7.40;;;23.80;90.60;;;;;;4950293;29;20409;-68
2023/10/10 12:48:39;;;;;;;7.00;6.33;;;23.80;90.60;;;;;;4950920;28;20404;-68
2023/10/10 12:51:09;;;;;;;6.73;6.13;;;23.80;91.00;;;;;;4948174;29;20433;-68
2023/10/10 12:53:39;;;;;;;8.00;7.30;;;23.80;89.60;;;;;;4950908;28;20416;-67
2023/10/10 12:56:15;;;;;;;7.53;6.53;;;23.80;90.80;;;;;;4948583;29;20417;-67
2023/10/10 12:58:43;;;;;;;7.50;6.30;;;23.80;89.90;;;;;;4950612;28;20413;-69
2023/10/10 13:01:12;;;;;;;6.37;5.77;;;23.80;90.30;;;;;;4949018;28;20428;-69
2023/10/10 13:03:38;;;;;;;7.03;6.33;;;23.80;90.20;;;;;;4950516;28;20412;-68
2023/10/10 13:06:06;;;;;;;7.13;6.00;;;23.80;90.30;;;;;;4949559;28;20413;-67
2023/10/10 13:08:38;;;;;;;8.37;5.90;;;23.70;90.20;;;;;;4949220;29;20852;-70
2023/10/10 13:11:20;;;;;;;6.03;5.53;;;23.70;90.70;;;;;;4949992;28;20412;-68
2023/10/10 13:13:56;;;;;;;8.87;5.33;;;23.70;89.90;;;;;;4954083;28;20464;-67
2023/10/10 13:18:53;;;;;;;77.10;64.83;;;23.60;89.80;;;;;;4953475;28;20420;-67
2023/10/10 13:21:22;;;;;;;143.23;120.27;;;23.60;90.10;;;;;;4952003;29;20418;-68
2023/10/10 13:23:49;;;;;;;14.97;13.40;;;23.60;90.80;;;;;;4951750;29;20504;-68
2023/10/10 13:26:16;;;;;;;7.80;7.00;;;23.50;91.90;;;;;;4934298;29;20444;-68
2023/10/10 13:28:46;;;;;;;7.13;6.43;;;23.50;91.70;;;;;;4971548;28;20459;-61
2023/10/10 13:31:18;;;;;;;6.37;5.70;;;23.60;90.40;;;;;;4972734;28;20430;-73
2023/10/10 13:33:44;;;;;;;7.43;6.07;;;23.60;89.40;;;;;;4977546;28;20474;-73
2023/10/10 13:36:17;;;;;;;6.40;5.90;;;23.70;90.00;;;;;;4971999;28;20423;-70
2023/10/10 13:38:48;;;;;;;6.43;5.87;;;23.80;90.00;;;;;;4972700;28;20428;-70
2023/10/10 13:41:22;;;;;;;9.10;5.20;;;23.90;90.10;;;;;;4954659;28;20424;-70
2023/10/10 13:43:50;;;;;;;6.80;5.80;;;24.00;90.10;;;;;;4956163;28;20413;-69
2023/10/10 13:46:20;;;;;;;10.87;5.47;;;24.10;90.00;;;;;;4948605;28;20494;-71
2023/10/10 13:48:47;;;;;;;6.43;5.53;;;24.20;90.00;;;;;;4954306;28;20431;-71
2023/10/10 13:51:14;;;;;;;7.63;4.80;;;24.30;88.70;;;;;;4965265;28;20420;-71
2023/10/10 13:53:44;;;;;;;8.13;5.40;;;24.40;89.60;;;;;;4972557;28;20490;-71
2023/10/10 13:56:16;;;;;;;6.97;6.37;;;24.50;86.50;;;;;;4957455;28;20439;-71
2023/10/10 13:58:51;;;;;;;6.60;6.00;;;24.50;88.10;;;;;;4958628;28;20435;-69
2023/10/10 14:01:29;;;;;;;9.67;5.80;;;24.60;88.10;;;;;;4968718;28;20935;-67
2023/10/10 14:06:47;;;;;;;8.03;5.83;;;24.70;87.10;;;;;;4964853;28;20440;-68
2023/10/10 14:09:33;;;;;;;6.50;5.90;;;24.70;86.20;;;;;;4968365;28;20809;-68
2023/10/10 14:12:01;;;;;;;6.47;5.87;;;24.70;86.60;;;;;;4965437;28;20498;-71
2023/10/10 14:14:27;;;;;;;17.27;9.00;;;24.70;86.60;;;;;;4965161;28;20911;-67
2023/10/10 14:16:53;;;;;;;312.53;260.20;;;24.80;87.60;;;;;;4969797;28;20436;-67
2023/10/10 14:19:23;;;;;;;40.73;34.67;;;24.90;89.00;;;;;;4953422;28;20489;-67
2023/10/10 14:21:52;;;;;;;8.50;6.57;;;24.90;86.90;;;;;;4963530;28;20645;-70
2023/10/10 14:24:18;;;;;;;5.97;4.93;;;25.00;88.10;;;;;;4954681;28;20442;-71
2023/10/10 14:26:44;;;;;;;8.40;5.00;;;25.00;85.90;;;;;;4954344;28;20475;-72
2023/10/10 14:29:14;;;;;;;9.10;5.70;;;25.00;87.20;;;;;;4972752;28;20935;-72
2023/10/10 14:31:43;;;;;;;8.70;5.70;;;25.00;86.90;;;;;;4972686;28;20243;-67
2023/10/10 14:34:38;;;;;;;6.37;5.67;;;25.10;87.40;;;;;;4973887;28;20427;-66
2023/10/10 14:37:01;;;;;;;7.37;5.47;;;25.10;87.70;;;;;;4974113;28;20427;-66
2023/10/10 14:39:36;;;;;;;6.40;5.13;;;25.10;87.80;;;;;;4972967;28;20919;-67
2023/10/10 14:42:02;;;;;;;6.80;6.10;;;25.10;87.90;;;;;;4975532;28;20255;-65
2023/10/10 14:44:29;;;;;;;6.47;5.80;;;25.10;84.30;;;;;;4974575;28;20416;-65
2023/10/10 14:46:57;;;;;;;7.00;6.30;;;25.10;85.10;;;;;;4975092;28;20407;-67
2023/10/10 14:49:29;;;;;;;7.67;6.87;;;25.10;86.10;;;;;;4974736;28;20431;-66
2023/10/10 14:52:00;;;;;;;8.10;6.23;;;25.10;86.30;;;;;;4975295;28;20474;-64
2023/10/10 14:54:27;;;;;;;9.80;5.70;;;25.10;85.40;;;;;;4974115;28;21467;-67
2023/10/10 14:56:54;;;;;;;7.00;6.20;;;25.10;85.10;;;;;;4941488;28;20427;-66
2023/10/10 14:59:25;;;;;;;10.23;5.40;;;25.10;85.00;;;;;;4973205;28;20957;-67
2023/10/10 15:01:52;;;;;;;6.07;5.57;;;25.10;85.60;;;;;;4974279;28;20907;-66
2023/10/10 15:04:20;;;;;;;6.97;6.37;;;25.10;86.00;;;;;;4973518;28;20452;-65
2023/10/10 15:06:48;;;;;;;9.60;6.13;;;25.10;85.10;;;;;;4974684;28;20950;-66
2023/10/10 15:09:20;;;;;;;6.27;5.70;;;25.10;86.60;;;;;;4972830;28;20412;-66
2023/10/10 15:11:47;;;;;;;6.13;5.50;;;25.10;86.20;;;;;;4957282;28;20452;-66
2023/10/10 15:14:14;;;;;;;6.17;5.67;;;25.10;85.30;;;;;;4974325;28;20439;-65
2023/10/10 15:16:40;;;;;;;7.13;5.57;;;25.00;86.10;;;;;;4957477;28;20420;-66
2023/10/10 15:19:08;;;;;;;7.10;6.07;;;25.00;87.30;;;;;;4973848;28;20966;-68
2023/10/10 15:21:38;;;;;;;11.13;6.10;;;25.00;88.40;;;;;;4973548;28;20939;-67
2023/10/10 15:24:11;;;;;;;7.57;6.10;;;24.90;87.20;;;;;;4957070;28;20439;-67
2023/10/10 15:26:40;;;;;;;6.03;5.43;;;24.90;87.90;;;;;;4956983;28;20459;-67
2023/10/10 15:29:10;;;;;;;6.77;6.10;;;24.90;89.00;;;;;;4974356;28;20419;-67
2023/10/10 15:31:38;;;;;;;6.63;6.00;;;24.80;87.60;;;;;;4973368;28;20927;-66
2023/10/10 15:34:04;;;;;;;8.13;6.27;;;24.70;87.20;;;;;;4974072;28;20412;-67
2023/10/10 15:36:30;;;;;;;6.73;5.97;;;24.60;87.90;;;;;;4962041;28;20436;-67
2023/10/10 15:38:57;;;;;;;7.40;5.80;;;24.60;87.90;;;;;;4972141;28;20432;-67
2023/10/10 15:41:25;;;;;;;6.63;5.93;;;24.60;88.50;;;;;;4972225;28;20463;-65
2023/10/10 15:43:52;;;;;;;7.03;6.33;;;24.50;88.10;;;;;;4974175;28;20420;-67
2023/10/10 15:46:25;;;;;;;6.17;5.33;;;24.50;90.00;;;;;;4973469;28;20411;-65
2023/10/10 15:48:52;;;;;;;7.93;5.80;;;24.30;90.20;;;;;;4974370;28;20396;-67
2023/10/10 15:51:22;;;;;;;6.50;5.87;;;24.30;90.40;;;;;;4973626;28;20502;-68
2023/10/10 15:53:49;;;;;;;5.57;5.07;;;24.30;90.20;;;;;;4974204;28;20408;-65
2023/10/10 15:56:20;;;;;;;6.00;5.50;;;24.20;90.50;;;;;;4973505;28;20410;-64
2023/10/10 15:58:52;;;;;;;6.90;6.13;;;24.20;91.70;;;;;;4974291;28;20404;-66
2023/10/10 16:01:28;;;;;;;7.70;6.23;;;24.10;92.20;;;;;;4973284;28;20498;-67
2023/10/10 16:03:59;;;;;;;7.87;6.43;;;24.10;91.90;;;;;;4973027;28;20427;-67
2023/10/10 16:06:26;;;;;;;9.27;5.93;;;24.00;91.90;;;;;;4973286;28;20510;-67